createdAt,value
2022-11-09T00:02:06.030Z,99823.81
2022-11-09T00:05:08.354Z,99830.31
2022-11-09T00:08:11.581Z,99834.31
2022-11-09T00:11:13.330Z,99827.31
2022-11-09T00:14:17.411Z,99844.78
2022-11-09T00:17:19.055Z,99862.25
2022-11-09T00:20:20.807Z,99895.75
2022-11-09T00:23:23.303Z,99921.13
2022-11-09T00:26:25.116Z,99941.88
2022-11-09T00:29:29.631Z,99945.59
2022-11-09T00:32:31.287Z,99963.03
2022-11-09T00:35:33.100Z,99951.88
2022-11-09T00:38:35.280Z,99953.22
2022-11-09T00:41:36.967Z,99959.84
2022-11-09T00:44:39.956Z,99950.13
2022-11-09T00:47:44.653Z,99944.75
2022-11-09T00:50:50.011Z,99937.63
2022-11-09T00:53:54.458Z,99924.50
2022-11-09T00:56:56.564Z,99920.50
2022-11-09T00:59:59.514Z,99930.94
2022-11-09T01:03:01.135Z,99935.78
2022-11-09T01:06:03.470Z,99946.31
2022-11-09T01:09:05.271Z,99976.63
2022-11-09T01:12:06.958Z,99967.91
2022-11-09T01:15:10.569Z,99973.59
2022-11-09T01:18:12.375Z,99967.66
2022-11-09T01:21:15.396Z,99965.13
2022-11-09T01:24:17.037Z,99960.00
2022-11-09T01:27:18.698Z,99956.88
2022-11-09T01:30:21.604Z,99966.06
2022-11-09T01:33:23.398Z,99958.59
2022-11-09T01:36:25.370Z,99967.09
2022-11-09T01:39:26.972Z,99967.66
2022-11-09T01:42:29.317Z,99954.56
2022-11-09T01:45:32.315Z,99959.84
2022-11-09T01:48:39.949Z,99950.56
2022-11-09T01:51:46.583Z,99947.22
2022-11-09T01:54:52.006Z,99955.13
2022-11-09T01:57:57.565Z,99948.16
2022-11-09T02:01:01.046Z,99945.41
2022-11-09T02:04:07.061Z,99950.69
2022-11-09T02:07:08.983Z,99941.59
2022-11-09T02:10:17.828Z,99941.38
2022-11-09T02:13:22.582Z,99937.69
2022-11-09T02:16:26.472Z,99932.41
2022-11-09T02:19:28.230Z,99933.91
2022-11-09T02:22:31.295Z,99945.38
2022-11-09T02:25:32.909Z,99931.50
2022-11-09T02:28:36.327Z,99933.19
2022-11-09T02:31:42.209Z,99922.91
2022-11-09T02:34:44.051Z,99921.31
2022-11-09T02:37:49.687Z,99919.84
2022-11-09T02:40:52.901Z,99921.00
2022-11-09T02:43:55.167Z,99918.38
2022-11-09T02:46:56.897Z,99901.59
2022-11-09T02:50:00.039Z,99894.63
2022-11-09T02:53:04.061Z,99881.53
2022-11-09T02:56:08.365Z,99872.81
2022-11-09T02:59:10.066Z,99852.84
2022-11-09T03:02:12.623Z,99842.56
2022-11-09T03:05:14.808Z,99866.56
2022-11-09T03:08:19.631Z,99868.97
2022-11-09T03:11:22.474Z,99873.59
2022-11-09T03:14:24.340Z,99859.66
2022-11-09T03:17:31.956Z,99850.03
2022-11-09T03:20:33.980Z,99839.00
2022-11-09T03:23:38.448Z,99839.81
2022-11-09T03:26:40.112Z,99834.28
2022-11-09T03:29:41.890Z,99830.28
2022-11-09T03:32:48.025Z,99825.34
2022-11-09T03:35:52.185Z,99785.31
2022-11-09T03:38:55.910Z,99824.53
2022-11-09T03:41:57.732Z,99843.56
2022-11-09T03:45:00.634Z,99857.78
2022-11-09T03:48:02.544Z,99862.59
2022-11-09T03:51:04.256Z,99863.97
2022-11-09T03:54:07.315Z,99876.88
2022-11-09T03:57:08.911Z,99882.88
2022-11-09T04:00:14.410Z,99888.81
2022-11-09T04:03:16.103Z,99885.06
2022-11-09T04:06:17.761Z,99888.25
2022-11-09T04:09:20.692Z,99898.84
2022-11-09T04:12:22.370Z,99904.47
2022-11-09T04:15:24.071Z,99895.78
2022-11-09T04:18:27.064Z,99900.16
2022-11-09T04:21:28.894Z,99909.06
2022-11-09T04:24:31.886Z,99907.09
2022-11-09T04:27:33.467Z,99912.81
2022-11-09T04:30:36.346Z,99911.00
2022-11-09T04:33:38.016Z,99911.81
2022-11-09T04:36:39.801Z,99910.84
2022-11-09T04:39:42.735Z,99907.19
2022-11-09T04:42:44.329Z,99905.59
2022-11-09T04:45:47.311Z,99893.59
2022-11-09T04:48:48.950Z,99895.66
2022-11-09T04:51:50.551Z,99899.91
2022-11-09T04:54:53.475Z,99920.72
2022-11-09T04:57:55.116Z,99941.69
2022-11-09T05:01:02.417Z,99934.47
2022-11-09T05:04:04.413Z,99928.72
2022-11-09T05:07:06.140Z,99922.28
2022-11-09T05:10:09.613Z,99934.28
2022-11-09T05:13:12.579Z,99926.13
2022-11-09T05:16:14.416Z,99926.13
2022-11-09T05:19:16.142Z,99928.22
2022-11-09T05:22:36.474Z,99926.38
2022-11-09T05:25:39.590Z,99918.63
2022-11-09T05:28:41.615Z,99915.59
2022-11-09T05:31:50.877Z,99922.59
2022-11-09T05:34:53.821Z,99935.22
2022-11-09T05:37:55.476Z,99938.53
2022-11-09T05:40:58.666Z,99936.91
2022-11-09T05:44:00.289Z,99944.81
2022-11-09T05:47:01.899Z,99936.13
2022-11-09T05:50:04.106Z,99935.88
2022-11-09T05:53:05.820Z,99933.38
2022-11-09T05:56:11.072Z,99924.78
2022-11-09T05:59:12.731Z,99919.53
2022-11-09T06:02:14.491Z,99918.97
2022-11-09T06:05:16.432Z,99908.53
2022-11-09T06:08:18.048Z,99906.28
2022-11-09T06:11:24.395Z,99922.09
2022-11-09T06:14:26.251Z,99932.09
2022-11-09T06:17:28.193Z,99931.16
2022-11-09T06:20:30.272Z,99932.31
2022-11-09T06:23:32.351Z,99929.38
2022-11-09T06:26:35.328Z,99939.81
2022-11-09T06:29:37.028Z,99942.88
2022-11-09T06:32:38.820Z,99943.91
2022-11-09T06:35:40.937Z,99937.59
2022-11-09T06:38:42.633Z,99944.84
2022-11-09T06:41:47.641Z,99951.25
2022-11-09T06:44:49.474Z,99959.47
2022-11-09T06:47:51.109Z,99960.38
2022-11-09T06:50:52.726Z,99950.78
2022-11-09T06:53:54.321Z,99929.31
2022-11-09T06:56:57.485Z,99919.59
2022-11-09T07:00:00.243Z,99917.97
2022-11-09T07:03:02.423Z,99905.31
2022-11-09T07:06:05.834Z,99883.03
2022-11-09T07:09:07.569Z,99879.72
2022-11-09T07:12:10.592Z,99883.94
2022-11-09T07:15:12.737Z,99902.16
2022-11-09T07:18:14.351Z,99900.38
2022-11-09T07:21:15.999Z,99895.91
2022-11-09T07:24:17.626Z,99898.22
2022-11-09T07:27:24.849Z,99920.22
2022-11-09T07:30:29.174Z,99921.75
2022-11-09T07:33:32.656Z,99937.81
2022-11-09T07:36:36.668Z,99941.25
2022-11-09T07:39:38.354Z,99960.41
2022-11-09T07:42:41.357Z,99959.50
2022-11-09T07:45:43.116Z,99951.13
2022-11-09T07:48:44.776Z,99955.59
2022-11-09T07:51:46.409Z,99968.31
2022-11-09T07:54:51.967Z,99984.41
2022-11-09T07:57:59.879Z,99996.81
2022-11-09T08:01:01.887Z,99994.59
2022-11-09T08:04:04.112Z,100007.59
2022-11-09T08:07:05.868Z,100009.44
2022-11-09T08:10:08.242Z,100011.94
2022-11-09T08:13:14.404Z,100009.31
2022-11-09T08:16:16.728Z,100013.25
2022-11-09T08:19:18.377Z,100005.47
2022-11-09T08:22:20.023Z,100014.72
2022-11-09T08:25:21.923Z,100004.94
2022-11-09T08:28:24.898Z,100010.50
2022-11-09T08:31:26.729Z,100021.72
2022-11-09T08:34:28.438Z,100019.31
2022-11-09T08:37:30.116Z,100015.66
2022-11-09T08:40:33.146Z,100019.97
2022-11-09T08:43:36.236Z,100022.63
2022-11-09T08:46:41.258Z,100025.88
2022-11-09T08:49:44.179Z,100031.63
2022-11-09T08:52:45.918Z,100031.63
2022-11-09T08:55:49.614Z,100040.34
2022-11-09T08:58:52.795Z,100041.38
2022-11-09T09:01:54.446Z,100050.25
2022-11-09T09:04:56.177Z,100051.66
2022-11-09T09:07:58.955Z,100043.19
2022-11-09T09:11:02.026Z,100052.00
2022-11-09T09:14:05.382Z,100049.84
2022-11-09T09:17:07.037Z,100052.47
2022-11-09T09:20:09.081Z,100044.19
2022-11-09T09:23:12.549Z,100044.63
2022-11-09T09:26:14.200Z,100049.00
2022-11-09T09:29:17.441Z,100046.00
2022-11-09T09:32:19.159Z,100052.63
2022-11-09T09:35:20.933Z,100057.91
2022-11-09T09:38:22.783Z,100062.47
2022-11-09T09:41:35.095Z,100061.16
2022-11-09T09:44:43.419Z,100072.09
2022-11-09T09:47:51.307Z,100084.91
2022-11-09T09:50:56.158Z,100072.66
2022-11-09T09:54:05.424Z,100083.56
2022-11-09T09:57:14.710Z,100086.97
2022-11-09T10:00:23.567Z,100093.00
2022-11-09T10:03:25.330Z,100087.66
2022-11-09T10:06:49.283Z,100086.53
2022-11-09T10:10:25.586Z,100071.88
2022-11-09T10:13:43.229Z,100059.94
2022-11-09T10:16:55.980Z,100066.88
2022-11-09T10:20:11.353Z,100057.09
2022-11-09T10:23:30.149Z,100056.53
2022-11-09T10:26:41.225Z,100050.91
2022-11-09T10:29:46.817Z,100053.41
2022-11-09T10:32:52.470Z,100038.69
2022-11-09T10:45:37.604Z,100034.75
2022-11-09T10:49:19.649Z,100038.53
2022-11-09T10:52:44.217Z,100044.53
2022-11-09T10:56:20.285Z,100036.44
2022-11-09T10:59:49.635Z,100033.50
2022-11-09T11:03:15.086Z,100032.00
2022-11-09T11:06:36.583Z,100036.91
2022-11-09T11:09:58.741Z,100046.91
2022-11-09T11:13:24.345Z,100043.63
2022-11-09T11:16:46.147Z,100035.59
2022-11-09T11:20:27.386Z,100038.56
2022-11-09T11:24:13.196Z,100033.47
2022-11-09T11:27:40.264Z,100044.09
2022-11-09T11:31:00.988Z,100042.94
2022-11-09T11:34:45.645Z,100034.25
2022-11-09T11:38:14.377Z,100040.06
2022-11-09T11:41:53.119Z,100036.72
2022-11-09T11:45:40.155Z,100031.88
2022-11-09T11:49:41.131Z,100029.63
2022-11-09T11:53:21.663Z,100020.16
2022-11-09T11:56:47.177Z,100024.25
2022-11-09T12:00:13.187Z,100029.53
2022-11-09T12:03:52.204Z,100031.84
2022-11-09T12:07:26.468Z,100028.19
2022-11-09T12:10:56.259Z,100031.28
2022-11-09T12:14:29.918Z,100023.31
2022-11-09T12:18:03.659Z,100029.50
2022-11-09T12:21:32.217Z,100028.97
2022-11-09T12:25:00.395Z,100016.88
2022-11-09T12:28:44.991Z,100017.25
2022-11-09T12:32:25.276Z,100022.28
2022-11-09T12:35:51.333Z,100010.69
2022-11-09T12:39:20.104Z,100022.16
2022-11-09T12:42:46.541Z,100023.91
2022-11-09T12:46:07.362Z,100021.38
2022-11-09T12:49:36.514Z,100020.00
2022-11-09T12:52:56.960Z,100023.56
2022-11-09T12:56:21.950Z,100023.94
2022-11-09T12:59:48.155Z,100029.03
2022-11-09T13:03:19.769Z,100014.25
2022-11-09T13:06:42.545Z,100022.56
2022-11-09T13:10:27.205Z,100025.09
2022-11-09T13:13:47.617Z,100017.56
2022-11-09T13:17:41.071Z,100026.91
2022-11-09T13:21:15.848Z,100028.84
2022-11-09T13:24:53.164Z,100022.44
2022-11-09T13:28:41.470Z,100025.88
2022-11-09T13:32:33.046Z,100026.38
2022-11-09T13:35:59.904Z,100027.16
2022-11-09T13:39:31.963Z,100022.00
2022-11-09T13:43:00.550Z,100024.63
2022-11-09T13:46:26.162Z,100021.19
2022-11-09T13:49:49.591Z,100019.44
2022-11-09T13:53:29.398Z,100022.78
2022-11-09T13:56:50.549Z,100024.75
2022-11-09T14:00:19.507Z,100016.91
2022-11-09T14:03:39.946Z,100021.41
2022-11-09T14:07:03.778Z,100024.75
2022-11-09T14:10:43.780Z,100017.84
2022-11-09T14:14:17.681Z,100016.91
2022-11-09T14:17:46.605Z,100018.53
2022-11-09T14:21:17.524Z,100030.50
2022-11-09T14:24:38.323Z,100031.41
2022-11-09T14:27:58.782Z,100032.25
2022-11-09T14:31:23.166Z,100034.75
2022-11-09T14:34:44.728Z,100034.22
2022-11-09T14:38:17.473Z,100039.50
2022-11-09T14:41:38.067Z,100035.72
2022-11-09T14:44:58.742Z,100037.78
2022-11-09T14:48:21.231Z,100034.25
2022-11-09T14:51:43.058Z,100047.56
2022-11-09T14:55:04.327Z,100047.25
2022-11-09T14:58:24.820Z,100039.06
2022-11-09T15:01:58.023Z,100048.47
2022-11-09T15:05:34.391Z,100054.56
2022-11-09T15:08:58.433Z,100062.50
2022-11-09T15:12:20.861Z,100069.41
2022-11-09T15:15:41.077Z,100078.72
2022-11-09T15:19:01.785Z,100078.50
2022-11-09T15:22:44.740Z,100073.22
2022-11-09T15:26:23.972Z,100079.50
2022-11-09T15:29:44.574Z,100089.75
2022-11-09T15:33:26.643Z,100085.63
2022-11-09T15:36:54.071Z,100085.38
2022-11-09T15:40:18.426Z,100083.28
2022-11-09T15:43:40.838Z,100085.81
2022-11-09T15:47:01.257Z,100088.94
2022-11-09T15:50:23.739Z,100091.34
2022-11-09T15:53:44.298Z,100098.09
2022-11-09T15:57:04.674Z,100102.22
2022-11-09T16:00:27.227Z,100099.59
2022-11-09T16:03:47.670Z,100094.66
2022-11-09T16:07:11.207Z,100099.94
2022-11-09T16:10:37.208Z,100101.56
2022-11-09T16:13:59.676Z,100107.63
2022-11-09T16:17:21.395Z,100106.34
2022-11-09T16:20:41.752Z,100114.28
2022-11-09T16:24:01.762Z,100114.94
2022-11-09T16:27:48.561Z,100119.22
2022-11-09T16:31:03.280Z,100139.41
2022-11-09T16:34:25.174Z,100145.25
2022-11-09T16:37:46.652Z,100155.69
2022-11-09T16:41:07.020Z,100152.94
2022-11-09T16:44:33.919Z,100156.25
2022-11-09T16:47:56.865Z,100157.03
2022-11-09T16:51:18.396Z,100171.97
2022-11-09T16:54:38.636Z,100170.44
2022-11-09T16:57:59.549Z,100174.94
2022-11-09T17:01:23.405Z,100184.56
2022-11-09T17:04:44.094Z,100187.63
2022-11-09T17:08:06.381Z,100205.31
2022-11-09T17:11:26.574Z,100208.63
2022-11-09T17:14:47.080Z,100211.84
2022-11-09T17:18:09.821Z,100217.13
2022-11-09T17:21:30.204Z,100224.09
2022-11-09T17:24:52.042Z,100225.34
2022-11-09T17:28:12.655Z,100223.06
2022-11-09T17:31:33.914Z,100232.72
2022-11-09T17:34:54.520Z,100235.91
2022-11-09T17:38:14.944Z,100242.63
2022-11-09T17:41:42.299Z,100246.06
2022-11-09T17:45:03.482Z,100253.50
2022-11-09T17:48:23.951Z,100254.72
2022-11-09T17:51:44.609Z,100255.78
2022-11-09T17:55:05.367Z,100260.22
2022-11-09T17:58:27.153Z,100258.13
2022-11-09T18:01:47.516Z,100263.16
2022-11-09T18:05:08.644Z,100273.72
2022-11-09T18:08:29.080Z,100264.63
2022-11-09T18:11:49.654Z,100275.72
2022-11-09T18:15:11.360Z,100286.25
2022-11-09T18:18:31.997Z,100286.53
2022-11-09T18:21:52.806Z,100286.91
2022-11-09T18:25:13.370Z,100290.38
2022-11-09T18:28:33.743Z,100293.38
2022-11-09T18:31:55.144Z,100303.69
2022-11-09T18:35:15.335Z,100298.41
2022-11-09T18:38:36.165Z,100301.88
2022-11-09T18:41:56.952Z,100313.59
2022-11-09T18:45:17.447Z,100318.84
2022-11-09T18:48:39.398Z,100315.72
2022-11-09T18:51:59.838Z,100313.88
2022-11-09T18:55:20.082Z,100326.41
2022-11-09T18:58:40.581Z,100329.69
2022-11-09T19:02:01.179Z,100335.50
2022-11-09T19:05:22.627Z,100344.31
2022-11-09T19:09:02.953Z,100350.00
2022-11-09T19:12:24.119Z,100357.78
2022-11-09T19:15:45.580Z,100358.59
2022-11-09T19:19:06.527Z,100356.47
2022-11-09T19:22:29.074Z,100358.97
2022-11-09T19:25:50.189Z,100361.34
2022-11-09T19:29:12.214Z,100364.91
2022-11-09T19:32:32.414Z,100369.13
2022-11-09T19:36:23.170Z,100371.88
2022-11-09T19:39:36.127Z,100382.56
2022-11-09T19:42:58.664Z,100378.84
2022-11-09T19:46:18.894Z,100391.63
2022-11-09T19:49:39.466Z,100392.41
2022-11-09T19:52:59.960Z,100398.47
2022-11-09T19:56:22.952Z,100406.38
2022-11-09T19:59:43.287Z,100408.06
2022-11-09T20:03:04.343Z,100418.53
2022-11-09T20:06:25.911Z,100428.69
2022-11-09T20:09:46.238Z,100421.06
2022-11-09T20:13:08.075Z,100424.06
2022-11-09T20:16:28.989Z,100433.25
2022-11-09T20:19:49.392Z,100434.28
2022-11-09T20:23:09.905Z,100451.41
2022-11-09T20:26:30.028Z,100443.78
2022-11-09T20:29:51.809Z,100449.31
2022-11-09T20:33:11.964Z,100464.22
2022-11-09T20:36:32.595Z,100461.38
2022-11-09T20:39:53.004Z,100462.34
2022-11-09T20:43:13.560Z,100458.88
2022-11-09T20:46:36.802Z,100469.06
2022-11-09T20:49:57.078Z,100463.88
2022-11-09T20:53:17.348Z,100474.97
2022-11-09T20:56:37.765Z,100475.97
2022-11-09T20:59:58.248Z,100480.31
2022-11-09T21:03:21.248Z,100494.47
2022-11-09T21:06:41.843Z,100494.91
2022-11-09T21:10:02.470Z,100503.00
2022-11-09T21:13:23.256Z,100496.53
2022-11-09T21:16:43.749Z,100504.56
2022-11-09T21:20:06.191Z,100507.13
2022-11-09T21:23:26.334Z,100497.72
2022-11-09T21:27:05.458Z,100512.16
2022-11-09T21:30:25.870Z,100519.91
2022-11-09T21:33:46.171Z,100527.59
2022-11-09T21:37:08.546Z,100542.19
2022-11-09T21:40:28.722Z,100546.94
2022-11-09T21:43:51.943Z,100551.94
2022-11-09T21:47:12.663Z,100551.31
2022-11-09T21:50:32.920Z,100554.50
2022-11-09T21:53:54.492Z,100568.47
2022-11-09T21:57:15.099Z,100564.34
2022-11-09T22:00:35.598Z,100566.47
2022-11-09T22:03:55.766Z,100570.66
2022-11-09T22:07:16.088Z,100578.25
2022-11-09T22:10:37.873Z,100577.66
2022-11-09T22:14:16.605Z,100583.28
2022-11-09T22:17:36.865Z,100591.94
2022-11-09T22:20:57.218Z,100597.41
2022-11-09T22:24:17.700Z,100604.31
2022-11-09T22:27:39.578Z,100598.78
2022-11-09T22:31:00.545Z,100610.38
2022-11-09T22:34:20.979Z,100619.81
2022-11-09T22:37:41.373Z,100612.28
2022-11-09T22:41:02.307Z,100624.19
2022-11-09T22:44:23.897Z,100629.13
2022-11-09T22:47:44.533Z,100625.38
2022-11-09T22:51:05.526Z,100645.50
2022-11-09T22:54:25.991Z,100644.53
2022-11-09T22:57:46.437Z,100641.47
2022-11-09T23:01:11.466Z,100650.41
2022-11-09T23:04:32.365Z,100658.94
2022-11-09T23:07:54.764Z,100661.53
2022-11-09T23:11:17.083Z,100656.13
2022-11-09T23:14:55.979Z,100660.31
2022-11-09T23:18:43.441Z,100668.22
2022-11-09T23:22:03.940Z,100678.25
2022-11-09T23:25:42.622Z,100673.16
2022-11-09T23:29:02.848Z,100674.84
2022-11-09T23:32:23.176Z,100678.25
2022-11-09T23:35:44.792Z,100680.41
2022-11-09T23:39:04.961Z,100679.63
2022-11-09T23:42:25.431Z,100687.66
2022-11-09T23:45:45.850Z,100696.94
2022-11-09T23:49:05.863Z,100700.81
2022-11-09T23:52:27.647Z,100694.19
2022-11-09T23:55:48.096Z,100694.75
2022-11-09T23:59:08.616Z,100703.25
